Laramie, Wyoming
Current Conditions -  °F | °C
As of 6:53 PM on Sunday 25 Jan 2015 (Local Time) from KLAR Reporting Station
Clear Clear  
Wind Chill:   Ceiling: Unl
Heat Index:   Visibility: 10mi
Dew Point: -5°   Wind: 6mph
Humidity: 57%   Direction: 260°W
Pressure: 30.23"   Gusts: NA
Location:  41.31°N, 105.59°W
Report Text: KLAR 260153Z AUTO 26005KT 10SM CLR 03/M05 A3023 RMK AO2 SLP233 T00281050
Loading
Personal Weather Stations






























Interactive Weather Map New forecast layout! Learn more

10-Day Weather Forecast

Advertisements
Track Severe Weather on mobile